createdAt,value
2023-03-02T00:02:09.291Z,86.34
2023-03-02T00:04:53.904Z,86.18
2023-03-02T00:07:32.978Z,86.62
2023-03-02T00:10:04.380Z,86.95
2023-03-02T00:12:37.233Z,87.42
2023-03-02T00:15:04.055Z,87.26
2023-03-02T00:17:30.625Z,87.94
2023-03-02T00:20:11.492Z,88.07
2023-03-02T00:22:39.932Z,88.56
2023-03-02T00:25:09.660Z,88.55
2023-03-02T00:27:38.516Z,88.57
2023-03-02T00:30:05.855Z,88.65
2023-03-02T00:32:32.460Z,88.92
2023-03-02T00:35:00.156Z,88.69
2023-03-02T00:37:26.720Z,88.88
2023-03-02T00:39:56.380Z,89.13
2023-03-02T00:42:23.441Z,89.36
2023-03-02T00:44:53.710Z,89.13
2023-03-02T00:47:22.286Z,89.34
2023-03-02T00:49:49.536Z,89.35
2023-03-02T00:52:16.813Z,89.48
2023-03-02T00:54:45.536Z,89.39
2023-03-02T00:57:14.397Z,89.58
2023-03-02T00:59:41.151Z,89.42
2023-03-02T01:02:07.779Z,89.47
2023-03-02T01:04:37.434Z,89.61
2023-03-02T01:07:11.144Z,89.54
2023-03-02T01:09:40.869Z,89.75
2023-03-02T01:12:11.169Z,89.87
2023-03-02T01:14:43.643Z,90.24
2023-03-02T01:17:11.807Z,90.29
2023-03-02T01:19:41.253Z,90.57
2023-03-02T01:22:08.468Z,90.57
2023-03-02T01:24:37.433Z,90.60
2023-03-02T01:27:06.491Z,90.86
2023-03-02T01:29:32.987Z,91.08
2023-03-02T01:32:02.576Z,91.31
2023-03-02T01:34:34.451Z,91.67
2023-03-02T01:37:00.956Z,91.54
2023-03-02T01:39:30.308Z,91.63
2023-03-02T01:41:59.124Z,91.80
2023-03-02T01:44:59.803Z,92.40
2023-03-02T01:47:33.690Z,92.24
2023-03-02T01:50:06.286Z,92.55
2023-03-02T01:52:38.569Z,92.85
2023-03-02T01:55:08.787Z,92.89
2023-03-02T01:57:43.602Z,93.12
2023-03-02T02:00:22.457Z,93.23
2023-03-02T02:02:54.876Z,93.27
2023-03-02T02:05:28.182Z,93.30
2023-03-02T02:07:54.688Z,93.31
2023-03-02T02:10:27.237Z,93.43
2023-03-02T02:12:53.728Z,93.70
2023-03-02T02:15:22.550Z,93.89
2023-03-02T02:17:50.012Z,93.83
2023-03-02T02:20:35.736Z,94.24
2023-03-02T02:23:07.753Z,94.28
2023-03-02T02:25:56.472Z,94.36
2023-03-02T02:28:33.195Z,94.58
2023-03-02T02:31:09.067Z,94.53
2023-03-02T02:33:39.849Z,94.67
2023-03-02T02:36:15.088Z,94.93
2023-03-02T02:38:46.480Z,94.87
2023-03-02T02:41:20.071Z,94.99
2023-03-02T02:43:46.646Z,94.92
2023-03-02T02:46:15.502Z,94.95
2023-03-02T02:48:47.634Z,94.97
2023-03-02T02:51:23.606Z,95.13
2023-03-02T02:53:58.586Z,95.20
2023-03-02T02:56:32.450Z,95.12
2023-03-02T02:59:22.717Z,95.02
2023-03-02T03:01:56.532Z,95.13
2023-03-02T03:04:26.984Z,95.09
2023-03-02T03:07:07.321Z,95.20
2023-03-02T03:09:33.842Z,95.44
2023-03-02T03:12:14.122Z,95.38
2023-03-02T03:14:41.458Z,95.41
2023-03-02T03:17:12.347Z,95.83
2023-03-02T03:19:42.187Z,95.69
2023-03-02T03:22:13.308Z,95.68
2023-03-02T03:24:41.390Z,95.53
2023-03-02T03:27:15.306Z,95.88
2023-03-02T03:29:51.315Z,95.95
2023-03-02T03:32:19.086Z,95.86
2023-03-02T03:34:48.345Z,95.83
2023-03-02T03:37:17.842Z,95.93
2023-03-02T03:39:45.368Z,96.01
2023-03-02T03:42:12.041Z,95.94
2023-03-02T03:44:40.662Z,95.95
2023-03-02T03:47:07.196Z,96.02
2023-03-02T03:49:38.261Z,95.94
2023-03-02T03:52:07.705Z,96.23
2023-03-02T03:54:39.917Z,96.15
2023-03-02T03:57:11.226Z,96.18
2023-03-02T03:59:38.014Z,96.13
2023-03-02T04:02:06.956Z,96.12
2023-03-02T04:04:35.143Z,96.13
2023-03-02T04:07:06.622Z,96.12
2023-03-02T04:09:37.725Z,96.25
2023-03-02T04:12:10.020Z,96.06
2023-03-02T04:14:39.661Z,96.37
2023-03-02T04:17:07.103Z,96.16
2023-03-02T04:19:35.546Z,96.16
2023-03-02T04:22:04.091Z,96.15
2023-03-02T04:24:30.933Z,96.07
2023-03-02T04:26:58.053Z,95.97
2023-03-02T04:29:27.088Z,96.10
2023-03-02T04:31:53.965Z,96.37
2023-03-02T04:34:25.593Z,96.17
2023-03-02T04:36:52.869Z,96.22
2023-03-02T04:39:22.437Z,96.19
2023-03-02T04:41:49.387Z,96.16
2023-03-02T04:44:16.971Z,96.41
2023-03-02T04:46:44.783Z,96.13
2023-03-02T04:49:15.609Z,96.00
2023-03-02T04:51:44.922Z,95.99
2023-03-02T04:54:21.770Z,96.16
2023-03-02T04:56:48.793Z,96.15
2023-03-02T04:59:26.296Z,96.10
2023-03-02T05:02:01.208Z,96.12
2023-03-02T05:04:28.970Z,96.22
2023-03-02T05:06:56.019Z,96.24
2023-03-02T05:09:31.148Z,96.00
2023-03-02T05:12:00.543Z,96.01
2023-03-02T05:14:29.775Z,96.10
2023-03-02T05:16:56.613Z,95.94
2023-03-02T05:19:23.200Z,95.90
2023-03-02T05:21:50.414Z,96.01
2023-03-02T05:24:19.484Z,96.05
2023-03-02T05:26:48.639Z,96.08
2023-03-02T05:29:17.414Z,95.80
2023-03-02T05:31:50.094Z,96.07
2023-03-02T05:34:18.022Z,95.96
2023-03-02T05:36:46.938Z,95.93
2023-03-02T05:39:16.167Z,95.90
2023-03-02T05:41:42.726Z,96.13
2023-03-02T05:44:12.582Z,96.03
2023-03-02T05:46:39.558Z,96.08
2023-03-02T05:49:06.472Z,96.06
2023-03-02T05:51:32.981Z,96.12
2023-03-02T05:54:02.090Z,96.31
2023-03-02T05:56:28.622Z,96.16
2023-03-02T05:58:55.144Z,96.13
2023-03-02T06:01:23.887Z,96.11
2023-03-02T06:03:50.424Z,96.13
2023-03-02T06:06:19.998Z,96.39
2023-03-02T06:08:48.912Z,95.99
2023-03-02T06:11:15.454Z,96.09
2023-03-02T06:13:46.621Z,96.01
2023-03-02T06:16:13.165Z,96.21
2023-03-02T06:18:41.460Z,96.05
2023-03-02T06:21:10.295Z,96.09
2023-03-02T06:23:39.400Z,96.08
2023-03-02T06:26:10.514Z,96.09
2023-03-02T06:28:51.358Z,96.15
2023-03-02T06:31:25.212Z,96.21
2023-03-02T06:33:55.226Z,95.88
2023-03-02T06:36:22.765Z,95.97
2023-03-02T06:38:51.589Z,95.92
2023-03-02T06:41:18.148Z,95.92
2023-03-02T06:43:45.084Z,95.81
2023-03-02T06:46:13.823Z,95.76
2023-03-02T06:48:43.026Z,95.63
2023-03-02T06:51:12.663Z,95.56
2023-03-02T06:53:39.171Z,95.64
2023-03-02T06:56:06.270Z,95.42
2023-03-02T06:58:32.954Z,95.49
2023-03-02T07:01:02.003Z,95.57
2023-03-02T07:03:28.858Z,95.34
2023-03-02T07:05:55.524Z,95.15
2023-03-02T07:08:22.256Z,94.93
2023-03-02T07:10:53.704Z,95.00
2023-03-02T07:13:20.186Z,94.85
2023-03-02T07:15:46.623Z,94.49
2023-03-02T07:18:15.662Z,94.50
2023-03-02T07:20:45.652Z,94.06
2023-03-02T07:23:12.208Z,93.59
2023-03-02T07:25:38.718Z,93.29
2023-03-02T07:28:09.953Z,93.37
2023-03-02T07:30:36.453Z,92.64
2023-03-02T07:33:05.218Z,92.21
2023-03-02T07:35:38.612Z,91.78
2023-03-02T07:38:07.427Z,91.15
2023-03-02T07:40:38.488Z,91.21
2023-03-02T07:43:09.934Z,91.00
2023-03-02T07:45:40.782Z,90.45
2023-03-02T07:48:08.378Z,89.91
2023-03-02T07:50:35.053Z,90.53
2023-03-02T07:53:01.513Z,90.60
2023-03-02T07:55:28.159Z,90.72
2023-03-02T07:57:54.935Z,90.65
2023-03-02T08:00:22.069Z,90.22
2023-03-02T08:02:51.184Z,90.10
2023-03-02T08:05:17.844Z,89.35
2023-03-02T08:07:46.536Z,88.54
2023-03-02T08:10:17.792Z,87.61
2023-03-02T08:12:46.833Z,85.32
2023-03-02T08:15:13.305Z,83.31
2023-03-02T08:17:41.122Z,81.55
2023-03-02T08:20:12.792Z,80.55
2023-03-02T08:22:42.226Z,77.84
2023-03-02T08:25:09.186Z,77.78
2023-03-02T08:27:40.227Z,76.60
2023-03-02T08:30:12.514Z,75.86
2023-03-02T08:32:39.725Z,73.44
2023-03-02T08:35:08.496Z,73.20
2023-03-02T08:37:38.218Z,71.64
2023-03-02T08:40:05.917Z,71.17
2023-03-02T08:42:34.940Z,71.51
2023-03-02T08:45:03.752Z,70.81
2023-03-02T08:47:32.663Z,71.13
2023-03-02T08:49:59.585Z,70.79
2023-03-02T08:52:32.613Z,69.98
2023-03-02T08:55:03.898Z,70.76
2023-03-02T08:57:30.775Z,71.57
2023-03-02T08:59:57.260Z,71.33
2023-03-02T09:02:26.081Z,71.37
2023-03-02T09:04:57.486Z,71.41
2023-03-02T09:07:24.434Z,69.75
2023-03-02T09:09:53.216Z,69.11
2023-03-02T09:12:20.780Z,70.34
2023-03-02T09:14:49.510Z,69.93
2023-03-02T09:17:19.708Z,68.49
2023-03-02T09:19:46.306Z,67.11
2023-03-02T09:22:13.171Z,67.81
2023-03-02T09:24:42.543Z,68.19
2023-03-02T09:27:09.028Z,66.29
2023-03-02T09:29:36.654Z,66.81
2023-03-02T09:32:03.386Z,66.24
2023-03-02T09:34:30.357Z,65.68
2023-03-02T09:36:59.413Z,64.90
2023-03-02T09:39:28.565Z,66.27
2023-03-02T09:42:09.986Z,64.42
2023-03-02T09:44:56.669Z,63.39
2023-03-02T09:47:46.941Z,64.48
2023-03-02T09:50:27.671Z,65.16
2023-03-02T09:53:10.618Z,65.29
2023-03-02T09:55:39.902Z,65.77
2023-03-02T09:58:17.309Z,66.87
2023-03-02T10:00:47.617Z,67.53
2023-03-02T10:03:20.639Z,67.49
2023-03-02T10:05:56.265Z,68.65
2023-03-02T10:08:32.948Z,67.89
2023-03-02T10:11:12.773Z,66.86
2023-03-02T10:13:52.448Z,67.31
2023-03-02T10:16:46.941Z,67.97
2023-03-02T10:19:25.217Z,68.27
2023-03-02T10:21:57.332Z,67.71
2023-03-02T10:24:44.729Z,66.85
2023-03-02T10:27:31.028Z,66.89
2023-03-02T10:30:03.584Z,66.42
2023-03-02T10:32:43.852Z,66.21
2023-03-02T10:35:20.921Z,66.01
2023-03-02T10:37:48.864Z,65.49
2023-03-02T10:40:45.796Z,64.78
2023-03-02T10:43:24.969Z,63.35
2023-03-02T10:46:05.460Z,63.28
2023-03-02T10:48:34.335Z,63.46
2023-03-02T10:51:00.872Z,64.11
2023-03-02T10:53:29.039Z,64.63
2023-03-02T10:55:56.719Z,62.85
2023-03-02T10:58:32.131Z,61.59
2023-03-02T11:01:00.455Z,61.76
2023-03-02T11:03:28.928Z,63.04
2023-03-02T11:05:58.344Z,60.30
2023-03-02T11:08:27.912Z,61.18
2023-03-02T11:11:06.486Z,61.10
2023-03-02T11:13:38.526Z,59.45
2023-03-02T11:16:24.257Z,59.68
2023-03-02T11:19:15.677Z,61.25
2023-03-02T11:21:59.096Z,59.50
2023-03-02T11:24:52.487Z,59.25
2023-03-02T11:27:25.037Z,59.93
2023-03-02T11:30:00.025Z,58.79
2023-03-02T11:32:46.091Z,57.36
2023-03-02T11:35:22.795Z,57.22
2023-03-02T11:37:57.282Z,58.15
2023-03-02T11:40:29.840Z,57.54
2023-03-02T11:42:58.816Z,57.55
2023-03-02T11:45:31.128Z,55.38
2023-03-02T11:48:20.345Z,56.34
2023-03-02T11:50:58.849Z,55.97
2023-03-02T11:53:51.440Z,56.58
2023-03-02T11:56:20.761Z,56.77
2023-03-02T11:58:55.081Z,58.74
2023-03-02T12:01:25.365Z,57.56
2023-03-02T12:03:55.013Z,57.02
2023-03-02T12:06:27.309Z,54.92
2023-03-02T12:09:08.269Z,55.58
2023-03-02T12:11:40.816Z,55.98
2023-03-02T12:14:41.788Z,54.25
2023-03-02T12:17:26.807Z,54.72
2023-03-02T12:20:08.383Z,54.75
2023-03-02T12:22:38.298Z,55.06
2023-03-02T12:25:27.878Z,53.34
2023-03-02T12:27:57.478Z,54.27
2023-03-02T12:30:28.328Z,52.33
2023-03-02T12:33:11.147Z,52.43
2023-03-02T12:35:43.391Z,51.77
2023-03-02T12:38:32.449Z,52.19
2023-03-02T12:41:24.194Z,51.36
2023-03-02T12:43:56.616Z,50.87
2023-03-02T12:46:35.093Z,51.85
2023-03-02T12:49:21.905Z,52.34
2023-03-02T12:51:56.836Z,51.54
2023-03-02T12:54:27.990Z,50.93
2023-03-02T12:57:22.106Z,51.61
2023-03-02T12:59:53.584Z,49.41
2023-03-02T13:02:23.462Z,50.91
2023-03-02T13:05:00.125Z,51.43
2023-03-02T13:07:40.155Z,51.60
2023-03-02T13:10:22.119Z,50.38
2023-03-02T13:12:55.213Z,50.42
2023-03-02T13:15:21.746Z,51.35
2023-03-02T13:18:01.058Z,49.66
2023-03-02T13:20:29.925Z,49.20
2023-03-02T13:23:01.297Z,49.51
2023-03-02T13:25:31.401Z,50.06
2023-03-02T13:28:10.827Z,50.59
2023-03-02T13:30:47.675Z,49.94
2023-03-02T13:33:25.785Z,50.20
2023-03-02T13:35:55.962Z,49.23
2023-03-02T13:38:29.241Z,50.41
2023-03-02T13:40:59.101Z,50.36
2023-03-02T13:43:36.536Z,50.31
2023-03-02T13:46:27.064Z,50.42
2023-03-02T13:49:10.136Z,50.25
2023-03-02T13:51:48.941Z,50.38
2023-03-02T13:54:15.250Z,51.28
2023-03-02T13:56:46.105Z,51.42
2023-03-02T13:59:20.077Z,51.88
2023-03-02T14:01:51.759Z,51.44
2023-03-02T14:04:28.288Z,51.73
2023-03-02T14:07:01.004Z,50.53
2023-03-02T14:09:27.533Z,50.42
2023-03-02T14:11:55.932Z,52.65
2023-03-02T14:14:28.749Z,52.88
2023-03-02T14:16:57.820Z,53.01
2023-03-02T14:19:29.308Z,53.03
2023-03-02T14:21:55.815Z,52.74
2023-03-02T14:24:24.927Z,52.92
2023-03-02T14:26:51.476Z,52.50
2023-03-02T14:29:34.660Z,52.33
2023-03-02T14:32:09.054Z,53.13
2023-03-02T14:34:37.281Z,52.35
2023-03-02T14:37:08.724Z,52.75
2023-03-02T14:39:43.705Z,53.73
2023-03-02T14:42:13.632Z,54.63
2023-03-02T14:44:45.796Z,53.96
2023-03-02T14:47:13.160Z,54.58
2023-03-02T14:49:42.356Z,54.43
2023-03-02T14:52:17.296Z,54.44
2023-03-02T14:54:51.689Z,52.84
2023-03-02T14:57:25.286Z,53.06
2023-03-02T14:59:56.171Z,53.19
2023-03-02T15:02:26.826Z,53.46
2023-03-02T15:04:57.506Z,52.95
2023-03-02T15:07:27.678Z,53.77
2023-03-02T15:09:56.237Z,53.89
2023-03-02T15:12:22.720Z,53.68
2023-03-02T15:14:49.339Z,53.83
2023-03-02T15:17:16.045Z,54.49
2023-03-02T15:19:42.616Z,54.04
2023-03-02T15:22:11.044Z,54.68
2023-03-02T15:24:37.471Z,54.52
2023-03-02T15:27:06.545Z,54.67
2023-03-02T15:29:35.641Z,55.09
2023-03-02T15:32:02.450Z,53.56
2023-03-02T15:34:33.540Z,54.42
2023-03-02T15:37:02.564Z,54.54
2023-03-02T15:39:30.509Z,58.28
2023-03-02T15:41:56.965Z,60.06
2023-03-02T15:44:27.308Z,61.01
2023-03-02T15:47:01.499Z,61.34
2023-03-02T15:49:29.397Z,61.74
2023-03-02T15:52:00.778Z,61.81
2023-03-02T15:54:28.410Z,59.40
2023-03-02T15:56:59.724Z,59.13
2023-03-02T15:59:28.976Z,59.92
2023-03-02T16:02:02.353Z,60.71
2023-03-02T16:04:33.567Z,60.27
2023-03-02T16:07:03.184Z,62.33
2023-03-02T16:09:30.933Z,63.35
2023-03-02T16:11:57.718Z,64.15
2023-03-02T16:14:24.305Z,64.41
2023-03-02T16:16:50.964Z,64.90
2023-03-02T16:19:20.235Z,65.24
2023-03-02T16:21:50.560Z,65.44
2023-03-02T16:24:19.454Z,65.86
2023-03-02T16:26:46.150Z,66.63
2023-03-02T16:29:13.845Z,67.02
2023-03-02T16:31:43.776Z,67.68
2023-03-02T16:34:12.852Z,67.94
2023-03-02T16:36:41.286Z,68.71
2023-03-02T16:39:09.245Z,68.92
2023-03-02T16:41:35.814Z,69.48
2023-03-02T16:44:03.731Z,70.14
2023-03-02T16:46:34.483Z,70.53
2023-03-02T16:49:00.927Z,70.54
2023-03-02T16:51:27.945Z,71.08
2023-03-02T16:53:54.644Z,71.39
2023-03-02T16:56:23.421Z,71.98
2023-03-02T16:58:49.986Z,72.29
2023-03-02T17:01:20.136Z,72.85
2023-03-02T17:03:47.729Z,73.08
2023-03-02T17:06:17.032Z,73.80
2023-03-02T17:08:48.845Z,73.45
2023-03-02T17:11:15.494Z,74.19
2023-03-02T17:13:44.547Z,74.08
2023-03-02T17:16:13.938Z,74.71
2023-03-02T17:18:46.670Z,74.85
2023-03-02T17:21:16.107Z,75.20
2023-03-02T17:23:48.323Z,75.29
2023-03-02T17:26:17.826Z,75.57
2023-03-02T17:28:44.720Z,75.87
2023-03-02T17:31:14.470Z,76.11
2023-03-02T17:33:40.992Z,76.39
2023-03-02T17:36:15.930Z,76.76
2023-03-02T17:38:44.564Z,76.78
2023-03-02T17:41:11.877Z,76.91
2023-03-02T17:43:41.877Z,77.70
2023-03-02T17:46:13.670Z,77.85
2023-03-02T17:48:40.840Z,78.10
2023-03-02T17:51:07.443Z,78.37
2023-03-02T17:53:37.669Z,78.56
2023-03-02T17:56:07.397Z,78.97
2023-03-02T17:58:44.220Z,79.29
2023-03-02T18:01:13.206Z,79.39
2023-03-02T18:03:42.534Z,79.52
2023-03-02T18:06:11.633Z,79.92
2023-03-02T18:08:40.893Z,80.05
2023-03-02T18:11:07.632Z,79.78
2023-03-02T18:13:34.204Z,80.08
2023-03-02T18:16:00.796Z,80.38
2023-03-02T18:18:27.393Z,80.07
2023-03-02T18:20:57.133Z,80.51
2023-03-02T18:23:23.714Z,80.57
2023-03-02T18:25:52.462Z,80.45
2023-03-02T18:28:21.173Z,80.83
2023-03-02T18:30:50.190Z,81.11
2023-03-02T18:33:16.652Z,81.40
2023-03-02T18:35:45.528Z,81.15
2023-03-02T18:38:12.303Z,81.28
2023-03-02T18:40:42.816Z,81.64
2023-03-02T18:43:09.537Z,81.63
2023-03-02T18:45:38.253Z,81.71
2023-03-02T18:48:05.056Z,81.43
2023-03-02T18:50:32.932Z,81.44
2023-03-02T18:52:59.523Z,81.45
2023-03-02T18:55:28.443Z,81.49
2023-03-02T18:57:57.170Z,81.24
2023-03-02T19:00:28.934Z,81.13
2023-03-02T19:02:57.178Z,81.19
2023-03-02T19:05:27.033Z,81.30
2023-03-02T19:07:54.788Z,81.26
2023-03-02T19:10:23.802Z,81.44
2023-03-02T19:12:50.469Z,81.67
2023-03-02T19:15:19.557Z,81.85
2023-03-02T19:17:46.142Z,81.94
2023-03-02T19:20:21.072Z,81.92
2023-03-02T19:22:47.897Z,82.05
2023-03-02T19:25:19.392Z,82.14
2023-03-02T19:27:45.892Z,82.48
2023-03-02T19:30:23.077Z,82.41
2023-03-02T19:32:54.548Z,82.39
2023-03-02T19:35:26.378Z,82.80
2023-03-02T19:37:52.963Z,82.99
2023-03-02T19:40:28.299Z,83.32
2023-03-02T19:42:56.216Z,83.55
2023-03-02T19:45:31.242Z,83.79
2023-03-02T19:48:02.114Z,83.89
2023-03-02T19:50:29.737Z,83.80
2023-03-02T19:52:59.840Z,84.29
2023-03-02T19:55:27.007Z,84.13
2023-03-02T19:57:59.808Z,84.45
2023-03-02T20:00:33.036Z,84.77
2023-03-02T20:03:00.401Z,84.71
2023-03-02T20:05:27.660Z,84.75
2023-03-02T20:07:55.262Z,84.87
2023-03-02T20:10:32.829Z,84.95
2023-03-02T20:13:03.510Z,85.19
2023-03-02T20:15:38.020Z,85.15
2023-03-02T20:18:13.285Z,85.38
2023-03-02T20:20:40.406Z,85.51
2023-03-02T20:23:07.945Z,85.77
2023-03-02T20:25:35.103Z,85.79
2023-03-02T20:28:07.206Z,86.03
2023-03-02T20:30:39.076Z,86.15
2023-03-02T20:33:07.968Z,86.43
2023-03-02T20:35:40.884Z,86.85
2023-03-02T20:38:15.047Z,86.89
2023-03-02T20:40:44.181Z,87.15
2023-03-02T20:43:10.787Z,87.39
2023-03-02T20:45:38.143Z,87.53
2023-03-02T20:48:07.017Z,88.04
2023-03-02T20:50:36.424Z,88.28
2023-03-02T20:53:05.777Z,88.47
2023-03-02T20:55:32.423Z,88.47
2023-03-02T20:58:01.953Z,88.49
2023-03-02T21:00:32.613Z,88.84
2023-03-02T21:03:03.876Z,88.82
2023-03-02T21:05:33.249Z,88.92
2023-03-02T21:08:02.767Z,89.16
2023-03-02T21:10:33.411Z,89.32
2023-03-02T21:13:02.480Z,89.34
2023-03-02T21:15:34.506Z,89.77
2023-03-02T21:18:05.809Z,89.99
2023-03-02T21:20:35.752Z,89.89
2023-03-02T21:23:11.119Z,90.11
2023-03-02T21:25:37.645Z,90.23
2023-03-02T21:28:04.235Z,90.32
2023-03-02T21:30:35.286Z,90.66
2023-03-02T21:33:02.294Z,90.64
2023-03-02T21:35:29.976Z,90.79
2023-03-02T21:38:04.706Z,91.03
2023-03-02T21:40:40.547Z,91.06
2023-03-02T21:43:07.650Z,91.10
2023-03-02T21:45:37.506Z,91.37
2023-03-02T21:48:05.097Z,91.30
2023-03-02T21:50:37.165Z,91.27
2023-03-02T21:53:06.949Z,91.23
2023-03-02T21:55:34.346Z,91.43
2023-03-02T21:58:01.119Z,91.48
2023-03-02T22:00:32.556Z,91.54
2023-03-02T22:03:03.254Z,91.64
2023-03-02T22:05:31.176Z,91.84
2023-03-02T22:08:03.629Z,91.85
2023-03-02T22:10:42.612Z,91.99
2023-03-02T22:13:23.989Z,91.94
2023-03-02T22:16:31.109Z,92.14
2023-03-02T22:18:59.738Z,92.43
2023-03-02T22:21:37.767Z,92.20
2023-03-02T22:24:13.199Z,92.38
2023-03-02T22:27:09.657Z,92.51
2023-03-02T22:29:48.280Z,92.80
2023-03-02T22:32:35.254Z,92.90
2023-03-02T22:35:14.538Z,93.42
2023-03-02T22:37:43.684Z,93.23
2023-03-02T22:40:29.446Z,93.29
2023-03-02T22:43:24.801Z,93.20
2023-03-02T22:45:53.031Z,93.17
2023-03-02T22:48:22.943Z,93.27
2023-03-02T22:50:50.142Z,93.40
2023-03-02T22:53:26.355Z,93.40
2023-03-02T22:56:31.890Z,93.63
2023-03-02T22:59:22.641Z,93.55
2023-03-02T23:01:55.444Z,93.60
2023-03-02T23:04:38.474Z,93.65
2023-03-02T23:07:22.010Z,93.65
2023-03-02T23:09:49.167Z,93.60
2023-03-02T23:12:21.963Z,93.62
2023-03-02T23:14:53.918Z,93.60
2023-03-02T23:17:47.418Z,93.84
2023-03-02T23:20:19.278Z,93.96
2023-03-02T23:22:49.990Z,94.09
2023-03-02T23:25:16.672Z,94.25
2023-03-02T23:27:43.191Z,94.29
2023-03-02T23:30:10.352Z,94.42
2023-03-02T23:32:36.866Z,94.25
2023-03-02T23:35:05.939Z,94.39
2023-03-02T23:37:33.202Z,94.35
2023-03-02T23:39:59.678Z,94.61
2023-03-02T23:42:26.175Z,94.46
2023-03-02T23:44:55.653Z,94.58
2023-03-02T23:47:24.991Z,94.52
2023-03-02T23:49:51.679Z,94.58
2023-03-02T23:52:18.148Z,94.74
2023-03-02T23:54:49.410Z,94.86
2023-03-02T23:57:16.139Z,94.69
2023-03-02T23:59:42.785Z,94.58
